createdAt,value
2018-12-07T00:00:42.856Z,12.57
2018-12-07T00:03:10.382Z,13.63
2018-12-07T00:05:37.895Z,14.43
2018-12-07T00:08:05.415Z,15.20
2018-12-07T00:10:32.923Z,11.37
2018-12-07T00:13:00.463Z,11.33
2018-12-07T00:15:27.974Z,12.50
2018-12-07T00:17:55.522Z,12.50
2018-12-07T00:20:23.053Z,10.33
2018-12-07T00:22:50.572Z,11.93
2018-12-07T00:25:18.112Z,14.73
2018-12-07T00:27:45.635Z,13.17
2018-12-07T00:30:13.264Z,13.87
2018-12-07T00:32:40.772Z,14.50
2018-12-07T00:35:08.286Z,15.23
2018-12-07T00:37:35.792Z,11.43
2018-12-07T00:40:04.566Z,14.20
2018-12-07T00:42:32.082Z,11.57
2018-12-07T00:44:59.613Z,11.87
2018-12-07T00:47:27.375Z,13.30
2018-12-07T00:49:54.891Z,13.70
2018-12-07T00:52:22.403Z,10.57
2018-12-07T00:54:49.936Z,19.07
2018-12-07T00:57:17.448Z,12.17
2018-12-07T00:59:44.987Z,13.03
2018-12-07T01:02:12.504Z,16.47
2018-12-07T01:04:40.004Z,13.53
2018-12-07T01:07:07.567Z,12.43
2018-12-07T01:09:35.104Z,14.17
2018-12-07T01:12:02.616Z,14.33
2018-12-07T01:14:30.181Z,12.10
2018-12-07T01:16:57.863Z,14.13
2018-12-07T01:19:25.399Z,18.00
2018-12-07T01:21:52.908Z,11.37
2018-12-07T01:24:20.447Z,11.73
2018-12-07T01:26:48.010Z,13.13
2018-12-07T01:29:15.587Z,10.97
2018-12-07T01:31:43.119Z,11.70
2018-12-07T01:34:10.633Z,12.40
2018-12-07T01:36:38.151Z,13.17
2018-12-07T01:39:06.204Z,14.37
2018-12-07T01:41:33.718Z,11.07
2018-12-07T01:44:01.329Z,12.90
2018-12-07T01:46:28.866Z,13.87
2018-12-07T01:48:56.374Z,12.97
2018-12-07T01:51:23.888Z,14.93
2018-12-07T01:53:51.401Z,13.40
2018-12-07T01:56:18.911Z,12.00
2018-12-07T01:58:46.434Z,13.13
2018-12-07T02:01:13.953Z,12.37
2018-12-07T02:03:41.459Z,12.80
2018-12-07T02:06:08.986Z,13.23
2018-12-07T02:08:36.525Z,15.33
2018-12-07T02:11:04.131Z,18.03
2018-12-07T02:13:31.672Z,18.27
2018-12-07T02:15:59.194Z,16.70
2018-12-07T02:18:26.811Z,19.93
2018-12-07T02:20:54.407Z,18.73
2018-12-07T02:23:21.915Z,17.37
2018-12-07T02:25:49.436Z,15.43
2018-12-07T02:28:16.952Z,20.47
2018-12-07T02:30:44.474Z,16.70
2018-12-07T02:33:12.014Z,15.60
2018-12-07T02:35:40.204Z,15.93
2018-12-07T02:38:07.740Z,15.03
2018-12-07T02:40:35.254Z,16.60
2018-12-07T02:43:02.775Z,15.00
2018-12-07T02:45:30.580Z,15.13
2018-12-07T02:47:58.098Z,17.43
2018-12-07T02:50:25.608Z,14.97
2018-12-07T02:52:53.176Z,18.53
2018-12-07T02:55:20.807Z,18.63
2018-12-07T02:57:48.336Z,16.67
2018-12-07T03:00:15.846Z,18.60
2018-12-07T03:02:43.412Z,15.47
2018-12-07T03:05:11.025Z,12.93
2018-12-07T03:07:38.562Z,15.80
2018-12-07T03:10:06.093Z,20.57
2018-12-07T03:12:33.651Z,19.90
2018-12-07T03:15:01.159Z,16.57
2018-12-07T03:17:28.672Z,17.13
2018-12-07T03:19:56.375Z,14.60
2018-12-07T03:22:23.908Z,14.37
2018-12-07T03:24:51.409Z,18.30
2018-12-07T03:27:18.921Z,16.40
2018-12-07T03:29:46.437Z,17.43
2018-12-07T03:32:14.075Z,20.00
2018-12-07T03:34:41.584Z,15.33
2018-12-07T03:37:09.221Z,13.23
2018-12-07T03:39:36.914Z,13.30
2018-12-07T03:42:04.535Z,15.00
2018-12-07T03:44:32.158Z,18.00
2018-12-07T03:46:59.677Z,21.20
2018-12-07T03:49:27.336Z,15.37
2018-12-07T03:51:54.843Z,20.33
2018-12-07T03:54:22.362Z,24.03
2018-12-07T03:56:49.886Z,18.67
2018-12-07T03:59:17.413Z,22.07
2018-12-07T04:01:44.955Z,18.80
2018-12-07T04:04:12.487Z,16.87
2018-12-07T04:06:40.144Z,14.90
2018-12-07T04:09:07.651Z,18.27
2018-12-07T04:11:35.161Z,21.13
2018-12-07T04:14:02.690Z,15.67
2018-12-07T04:16:30.211Z,16.43
2018-12-07T04:18:57.754Z,13.57
2018-12-07T04:21:25.272Z,20.33
2018-12-07T04:23:52.792Z,22.67
2018-12-07T04:26:20.333Z,15.67
2018-12-07T04:28:47.838Z,19.43
2018-12-07T04:31:15.515Z,16.97
2018-12-07T04:33:43.057Z,25.03
2018-12-07T04:36:10.558Z,24.80
2018-12-07T04:38:38.087Z,18.03
2018-12-07T04:41:05.593Z,20.90
2018-12-07T04:43:33.108Z,17.07
2018-12-07T04:46:00.620Z,19.33
2018-12-07T04:48:28.151Z,17.70
2018-12-07T04:50:55.685Z,19.53
2018-12-07T04:53:23.197Z,18.63
2018-12-07T04:55:50.717Z,15.73
2018-12-07T04:58:18.225Z,14.47
2018-12-07T05:00:45.762Z,10.97
2018-12-07T05:03:13.338Z,14.47
2018-12-07T05:05:40.913Z,18.90
2018-12-07T05:08:08.432Z,9.77
2018-12-07T05:10:35.975Z,14.47
2018-12-07T05:13:03.568Z,15.53
2018-12-07T05:15:31.088Z,10.57
2018-12-07T05:17:58.602Z,14.23
2018-12-07T05:20:26.122Z,15.87
2018-12-07T05:22:53.637Z,17.93
2018-12-07T05:25:21.193Z,15.27
2018-12-07T05:27:48.706Z,12.50
2018-12-07T05:30:16.240Z,11.63
2018-12-07T05:32:43.757Z,10.30
2018-12-07T05:35:11.284Z,10.10
2018-12-07T05:37:38.796Z,10.70
2018-12-07T05:40:06.319Z,12.37
2018-12-07T05:42:34.055Z,11.60
2018-12-07T05:45:01.574Z,13.07
2018-12-07T05:47:29.091Z,10.97
2018-12-07T05:49:56.607Z,14.53
2018-12-07T05:52:24.289Z,13.43
2018-12-07T05:54:51.809Z,13.03
2018-12-07T05:57:19.537Z,15.83
2018-12-07T05:59:47.063Z,10.60
2018-12-07T06:02:14.583Z,17.53
2018-12-07T06:04:42.104Z,17.17
2018-12-07T06:07:09.617Z,15.80
2018-12-07T06:09:37.138Z,9.00
2018-12-07T06:12:04.645Z,13.77
2018-12-07T06:14:32.171Z,11.00
2018-12-07T06:16:59.723Z,12.50
2018-12-07T06:19:27.233Z,10.03
2018-12-07T06:21:54.757Z,15.17
2018-12-07T06:24:22.274Z,9.37
2018-12-07T06:26:49.782Z,11.17
2018-12-07T06:29:17.371Z,10.47
2018-12-07T06:31:44.891Z,10.40
2018-12-07T06:34:12.411Z,8.10
2018-12-07T06:36:39.939Z,8.30
2018-12-07T06:39:07.617Z,9.10
2018-12-07T06:41:35.305Z,6.57
2018-12-07T06:44:02.809Z,8.10
2018-12-07T06:46:30.319Z,8.60
2018-12-07T06:49:05.169Z,8.77
2018-12-07T06:51:32.708Z,9.53
2018-12-07T06:54:00.305Z,7.37
2018-12-07T06:56:27.811Z,9.63
2018-12-07T06:58:55.320Z,9.07
2018-12-07T07:01:22.819Z,5.13
2018-12-07T07:03:50.338Z,6.40
2018-12-07T07:06:17.867Z,5.27
2018-12-07T07:08:45.382Z,8.37
2018-12-07T07:11:12.951Z,8.20
2018-12-07T07:13:40.455Z,6.30
2018-12-07T07:16:07.971Z,5.77
2018-12-07T07:18:35.500Z,4.80
2018-12-07T07:21:03.111Z,7.00
2018-12-07T07:23:30.653Z,6.20
2018-12-07T07:25:58.177Z,7.67
2018-12-07T07:28:25.729Z,5.50
2018-12-07T07:30:53.263Z,6.37
2018-12-07T07:33:20.786Z,9.10
2018-12-07T07:35:48.378Z,5.80
2018-12-07T07:38:15.900Z,6.53
2018-12-07T07:40:43.490Z,6.07
2018-12-07T07:43:11.015Z,6.73
2018-12-07T07:45:40.170Z,8.60
2018-12-07T07:48:07.675Z,9.40
2018-12-07T07:50:35.188Z,5.37
2018-12-07T07:53:02.702Z,5.37
2018-12-07T07:55:30.208Z,6.43
2018-12-07T07:57:57.728Z,5.27
2018-12-07T08:00:25.237Z,6.80
2018-12-07T08:02:52.896Z,5.83
2018-12-07T08:05:20.428Z,4.90
2018-12-07T08:07:48.067Z,8.50
2018-12-07T08:10:15.575Z,7.27
2018-12-07T08:12:43.116Z,9.27
2018-12-07T08:15:10.623Z,7.60
2018-12-07T08:17:38.225Z,6.53
2018-12-07T08:20:05.746Z,6.70
2018-12-07T08:22:33.354Z,9.87
2018-12-07T08:25:00.867Z,10.43
2018-12-07T08:27:28.377Z,14.73
2018-12-07T08:29:55.900Z,8.00
2018-12-07T08:32:23.426Z,12.00
2018-12-07T08:34:50.942Z,13.63
2018-12-07T08:37:18.442Z,8.27
2018-12-07T08:39:45.958Z,12.50
2018-12-07T08:42:13.538Z,19.50
2018-12-07T08:44:41.063Z,22.17
2018-12-07T08:47:08.593Z,14.13
2018-12-07T08:56:25.515Z,16.43
2018-12-07T08:58:53.036Z,14.23
2018-12-07T09:01:20.572Z,5.47
2018-12-07T09:03:48.105Z,11.57
2018-12-07T09:06:15.645Z,19.37
2018-12-07T09:08:43.151Z,8.77
2018-12-07T09:11:10.667Z,11.63
2018-12-07T09:13:38.187Z,7.17
2018-12-07T09:16:05.723Z,10.50
2018-12-07T09:18:33.236Z,11.07
2018-12-07T09:21:00.757Z,14.70
2018-12-07T09:23:28.309Z,11.43
2018-12-07T09:25:55.843Z,10.20
2018-12-07T09:28:23.353Z,6.63
2018-12-07T09:30:50.869Z,11.13
2018-12-07T09:33:18.381Z,16.70
2018-12-07T09:35:45.898Z,3.77
2018-12-07T09:38:13.569Z,3.30
2018-12-07T09:40:41.087Z,5.23
2018-12-07T09:43:08.614Z,14.30
2018-12-07T09:45:36.130Z,9.70
2018-12-07T09:48:03.694Z,15.47
2018-12-07T09:50:31.226Z,16.93
2018-12-07T09:52:58.751Z,14.47
2018-12-07T09:55:26.271Z,7.37
2018-12-07T09:57:53.793Z,8.10
2018-12-07T10:00:21.306Z,12.43
2018-12-07T10:02:48.835Z,4.70
2018-12-07T10:05:16.362Z,10.57
2018-12-07T10:07:43.876Z,8.87
2018-12-07T10:10:11.379Z,9.93
2018-12-07T10:12:38.887Z,9.70
2018-12-07T10:15:06.398Z,7.77
2018-12-07T10:17:33.946Z,19.17
2018-12-07T10:20:01.461Z,9.53
2018-12-07T10:22:28.983Z,3.03
2018-12-07T10:24:56.491Z,6.27
2018-12-07T10:27:24.006Z,13.07
2018-12-07T10:29:51.517Z,5.20
2018-12-07T10:32:19.026Z,13.30
2018-12-07T10:34:46.531Z,7.77
2018-12-07T10:37:14.048Z,10.00
2018-12-07T10:39:41.550Z,9.13
2018-12-07T10:42:09.145Z,12.60
2018-12-07T10:44:36.785Z,9.40
2018-12-07T10:47:04.316Z,4.00
2018-12-07T10:49:31.832Z,8.40
2018-12-07T10:51:59.345Z,3.53
2018-12-07T10:54:26.904Z,5.47
2018-12-07T10:56:54.414Z,3.63
2018-12-07T10:59:21.922Z,6.23
2018-12-07T11:01:55.174Z,8.07
2018-12-07T11:04:28.366Z,6.83
2018-12-07T11:10:00.944Z,9.77
2018-12-07T11:12:34.043Z,12.03
2018-12-07T11:15:07.256Z,11.97
2018-12-07T11:17:40.349Z,4.47
2018-12-07T11:20:13.564Z,4.50
2018-12-07T11:22:46.682Z,3.03
2018-12-07T11:28:21.759Z,13.17
2018-12-07T11:30:54.846Z,13.47
2018-12-07T11:33:27.979Z,12.13
2018-12-07T11:35:55.471Z,7.67
2018-12-07T11:38:23.013Z,15.93
2018-12-07T11:40:50.559Z,21.67
2018-12-07T11:43:18.098Z,16.37
2018-12-07T11:45:45.609Z,13.73
2018-12-07T11:48:13.145Z,12.87
2018-12-07T11:50:40.671Z,13.13
2018-12-07T11:53:08.195Z,14.60
2018-12-07T11:55:35.707Z,19.73
2018-12-07T11:58:03.235Z,21.17
2018-12-07T12:00:30.769Z,24.77
2018-12-07T12:02:58.305Z,16.43
2018-12-07T12:05:25.823Z,22.13
2018-12-07T12:07:53.328Z,19.17
2018-12-07T12:10:20.845Z,22.13
2018-12-07T12:12:48.392Z,15.83
2018-12-07T12:15:15.902Z,6.40
2018-12-07T12:17:43.419Z,11.80
2018-12-07T12:20:10.945Z,7.97
2018-12-07T12:22:38.463Z,4.47
2018-12-07T12:25:06.352Z,23.20
2018-12-07T12:27:33.890Z,25.93
2018-12-07T12:30:01.417Z,17.33
2018-12-07T12:32:28.953Z,15.23
2018-12-07T12:34:56.459Z,10.83
2018-12-07T12:37:24.218Z,15.67
2018-12-07T12:39:51.746Z,18.47
2018-12-07T12:42:19.271Z,29.30
2018-12-07T12:44:46.799Z,19.87
2018-12-07T12:47:14.315Z,13.90
2018-12-07T12:49:41.857Z,13.50
2018-12-07T12:52:09.366Z,13.27
2018-12-07T12:54:36.877Z,16.70
2018-12-07T12:57:04.384Z,16.03
2018-12-07T12:59:31.943Z,14.63
2018-12-07T13:01:59.467Z,7.27
2018-12-07T13:04:26.989Z,11.90
2018-12-07T13:06:54.511Z,11.20
2018-12-07T13:09:22.051Z,18.90
2018-12-07T13:11:49.572Z,9.53
2018-12-07T13:14:17.114Z,10.73
2018-12-07T13:16:44.642Z,20.30
2018-12-07T13:19:12.250Z,14.10
2018-12-07T13:21:39.772Z,8.70
2018-12-07T13:24:07.366Z,7.87
2018-12-07T13:26:34.885Z,15.70
2018-12-07T13:29:02.412Z,7.67
2018-12-07T13:31:29.926Z,6.50
2018-12-07T13:33:57.436Z,6.70
2018-12-07T13:36:24.938Z,9.77
2018-12-07T13:38:52.528Z,19.60
2018-12-07T13:41:20.094Z,20.83
2018-12-07T13:43:47.835Z,16.57
2018-12-07T13:46:15.623Z,4.80
2018-12-07T13:48:43.359Z,4.83
2018-12-07T13:51:11.195Z,6.43
2018-12-07T13:53:38.936Z,4.70
2018-12-07T13:56:06.652Z,4.63
2018-12-07T13:58:34.330Z,5.90
2018-12-07T14:01:02.138Z,5.07
2018-12-07T14:03:29.813Z,3.97
2018-12-07T14:05:57.451Z,9.13
2018-12-07T14:08:25.289Z,6.73
2018-12-07T14:10:53.030Z,5.30
2018-12-07T14:13:20.607Z,3.77
2018-12-07T14:15:48.130Z,4.80
2018-12-07T14:18:15.774Z,3.77
2018-12-07T14:20:43.481Z,3.87
2018-12-07T14:23:11.037Z,6.80
2018-12-07T14:25:38.695Z,5.93
2018-12-07T14:28:06.409Z,7.10
2018-12-07T14:30:35.973Z,8.00
2018-12-07T14:33:03.885Z,7.53
2018-12-07T14:35:31.504Z,6.80
2018-12-07T14:37:59.127Z,8.30
2018-12-07T14:40:26.775Z,10.17
2018-12-07T14:42:54.553Z,4.57
2018-12-07T14:45:22.436Z,10.33
2018-12-07T14:47:50.031Z,7.43
2018-12-07T14:50:17.693Z,12.40
2018-12-07T14:52:45.333Z,11.10
2018-12-07T14:55:13.113Z,12.10
2018-12-07T14:57:40.989Z,13.20
2018-12-07T15:00:09.030Z,12.13
2018-12-07T15:02:36.810Z,14.80
2018-12-07T15:05:05.320Z,12.30
2018-12-07T15:07:32.915Z,7.70
2018-12-07T15:10:00.604Z,14.10
2018-12-07T15:12:28.201Z,24.50
2018-12-07T15:14:55.986Z,11.70
2018-12-07T15:17:23.930Z,18.57
2018-12-07T15:19:51.698Z,20.43
2018-12-07T15:22:19.300Z,19.80
2018-12-07T15:24:46.938Z,17.60
2018-12-07T15:27:14.612Z,14.47
2018-12-07T15:29:42.457Z,17.17
2018-12-07T15:32:10.243Z,13.07
2018-12-07T15:34:37.969Z,17.70
2018-12-07T15:37:05.869Z,13.53
2018-12-07T15:39:33.576Z,14.20
2018-12-07T15:42:01.157Z,2.90
2018-12-07T15:44:28.879Z,4.07
2018-12-07T15:46:56.654Z,6.90
2018-12-07T15:49:24.612Z,8.93
2018-12-07T15:51:52.370Z,12.20
2018-12-07T15:54:20.006Z,8.20
2018-12-07T15:56:47.723Z,13.13
2018-12-07T15:59:15.623Z,10.00
2018-12-07T16:01:43.538Z,8.50
2018-12-07T16:04:11.274Z,12.40
2018-12-07T16:06:38.873Z,9.83
2018-12-07T16:09:06.876Z,12.53
2018-12-07T16:11:34.609Z,9.60
2018-12-07T16:14:02.207Z,8.43
2018-12-07T16:16:29.733Z,14.03
2018-12-07T16:18:57.743Z,9.63
2018-12-07T16:21:25.702Z,10.20
2018-12-07T16:23:53.511Z,7.83
2018-12-07T16:26:21.183Z,7.53
2018-12-07T16:28:48.815Z,7.43
2018-12-07T16:31:16.872Z,6.93
2018-12-07T16:33:44.773Z,6.67
2018-12-07T16:36:12.455Z,5.10
2018-12-07T16:38:40.048Z,6.33
2018-12-07T16:41:07.788Z,8.97
2018-12-07T16:43:35.388Z,7.77
2018-12-07T16:46:03.151Z,9.97
2018-12-07T16:48:31.002Z,9.10
2018-12-07T16:50:58.569Z,11.20
2018-12-07T16:53:26.562Z,10.70
2018-12-07T16:55:54.281Z,10.10
2018-12-07T16:58:23.784Z,13.93
2018-12-07T17:00:51.497Z,13.67
2018-12-07T17:03:19.331Z,12.17
2018-12-07T17:05:47.159Z,15.57
2018-12-07T17:08:14.935Z,11.30
2018-12-07T17:10:42.563Z,13.53
2018-12-07T17:13:10.239Z,10.47
2018-12-07T17:15:38.160Z,14.07
2018-12-07T17:18:05.746Z,17.20
2018-12-07T17:20:33.378Z,19.77
2018-12-07T17:23:01.242Z,12.87
2018-12-07T17:25:28.926Z,15.87
2018-12-07T17:27:57.085Z,14.47
2018-12-07T17:30:25.073Z,15.43
2018-12-07T17:32:52.859Z,12.73
2018-12-07T17:35:20.449Z,18.47
2018-12-07T17:37:48.245Z,15.73
2018-12-07T17:40:16.067Z,12.67
2018-12-07T17:42:43.661Z,16.33
2018-12-07T17:45:11.300Z,15.00
2018-12-07T17:47:39.161Z,16.20
2018-12-07T17:50:07.421Z,13.97
2018-12-07T17:52:35.151Z,17.53
2018-12-07T17:55:02.785Z,14.73
2018-12-07T17:57:30.437Z,15.90
2018-12-07T17:59:58.132Z,18.03
2018-12-07T18:02:25.723Z,13.97
2018-12-07T18:04:53.293Z,14.07
2018-12-07T18:07:21.761Z,15.93
2018-12-07T18:09:50.052Z,13.37
2018-12-07T18:12:17.710Z,12.57
2018-12-07T18:14:45.291Z,12.03
2018-12-07T18:17:12.903Z,15.70
2018-12-07T18:19:40.465Z,13.53
2018-12-07T18:22:08.256Z,13.07
2018-12-07T18:24:36.300Z,16.17
2018-12-07T18:27:04.088Z,10.97
2018-12-07T18:29:31.866Z,14.50
2018-12-07T18:31:59.688Z,16.57
2018-12-07T18:34:27.435Z,15.27
2018-12-07T18:36:55.073Z,15.20
2018-12-07T18:39:22.665Z,18.93
2018-12-07T18:41:50.303Z,12.20
2018-12-07T18:44:18.097Z,13.77
2018-12-07T18:46:45.787Z,12.57
2018-12-07T18:49:13.622Z,8.90
2018-12-07T18:51:41.625Z,11.27
2018-12-07T18:54:09.532Z,12.30
2018-12-07T18:56:37.170Z,12.13
2018-12-07T18:59:04.688Z,10.63
2018-12-07T19:01:32.474Z,13.67
2018-12-07T19:04:00.120Z,10.87
2018-12-07T19:06:27.708Z,12.00
2018-12-07T19:08:55.471Z,9.47
2018-12-07T19:11:23.212Z,15.27
2018-12-07T19:13:50.808Z,16.43
2018-12-07T19:16:18.391Z,9.73
2018-12-07T19:18:46.120Z,13.20
2018-12-07T19:21:14.056Z,11.13
2018-12-07T19:23:41.931Z,8.70
2018-12-07T19:26:09.671Z,10.37
2018-12-07T19:28:37.625Z,11.37
2018-12-07T19:31:05.384Z,13.17
2018-12-07T19:33:33.291Z,12.90
2018-12-07T19:36:01.119Z,12.33
2018-12-07T19:38:28.701Z,11.60
2018-12-07T19:40:56.355Z,11.97
2018-12-07T19:43:23.907Z,15.40
2018-12-07T19:45:51.499Z,17.93
2018-12-07T19:48:19.051Z,13.77
2018-12-07T19:50:46.780Z,9.70
2018-12-07T19:53:14.749Z,13.67
2018-12-07T19:55:42.345Z,15.23
2018-12-07T19:58:09.960Z,8.83
2018-12-07T20:00:37.735Z,12.80
2018-12-07T20:03:05.398Z,11.13
2018-12-07T20:05:33.161Z,11.63
2018-12-07T20:08:00.764Z,10.70
2018-12-07T20:10:30.061Z,14.73
2018-12-07T20:12:57.900Z,7.67
2018-12-07T20:15:25.695Z,13.00
2018-12-07T20:17:53.535Z,11.33
2018-12-07T20:20:21.174Z,14.50
2018-12-07T20:22:48.726Z,13.17
2018-12-07T20:25:16.362Z,12.53
2018-12-07T20:27:43.978Z,13.97
2018-12-07T20:30:11.846Z,13.03
2018-12-07T20:32:39.468Z,11.40
2018-12-07T20:35:07.092Z,9.67
2018-12-07T20:37:34.702Z,12.37
2018-12-07T20:40:02.296Z,9.17
2018-12-07T20:42:29.887Z,11.30
2018-12-07T20:44:57.581Z,9.80
2018-12-07T20:47:25.492Z,9.97
2018-12-07T20:49:53.392Z,19.80
2018-12-07T20:52:21.162Z,18.37
2018-12-07T20:54:48.870Z,19.13
2018-12-07T20:57:16.936Z,12.63
2018-12-07T20:59:44.663Z,17.47
2018-12-07T21:02:12.290Z,19.70
2018-12-07T21:04:40.451Z,12.73
2018-12-07T21:13:41.161Z,14.13
2018-12-07T21:16:34.441Z,15.93
2018-12-07T21:19:02.142Z,16.33
2018-12-07T21:21:30.042Z,23.47
2018-12-07T21:23:57.837Z,20.90
2018-12-07T21:26:25.401Z,21.57
2018-12-07T21:28:53.359Z,19.87
2018-12-07T21:31:21.105Z,10.93
2018-12-07T21:33:51.785Z,11.00
2018-12-07T21:36:37.799Z,10.50
2018-12-07T21:39:14.213Z,10.93
2018-12-07T21:41:41.803Z,15.97
2018-12-07T21:44:09.478Z,17.20
2018-12-07T21:46:37.306Z,12.93
2018-12-07T21:49:04.994Z,17.07
2018-12-07T21:51:48.161Z,16.07
2018-12-07T21:54:16.113Z,15.70
2018-12-07T21:56:44.234Z,13.67
2018-12-07T21:59:12.180Z,20.87
2018-12-07T22:01:40.050Z,14.70
2018-12-07T22:04:19.829Z,16.23
2018-12-07T22:06:48.187Z,14.80
2018-12-07T22:09:17.178Z,16.60
2018-12-07T22:11:50.521Z,11.77
2018-12-07T22:14:18.800Z,15.53
2018-12-07T22:16:46.418Z,12.33
2018-12-07T22:19:14.924Z,13.83
2018-12-07T22:21:42.774Z,12.60
2018-12-07T22:24:10.335Z,15.63
2018-12-07T22:26:38.008Z,17.67
2018-12-07T22:29:05.720Z,16.90
2018-12-07T22:31:33.438Z,19.20
2018-12-07T22:34:01.338Z,13.70
2018-12-07T22:36:29.272Z,12.87
2018-12-07T22:38:57.122Z,12.40
2018-12-07T22:41:25.035Z,11.43
2018-12-07T22:43:52.794Z,12.97
2018-12-07T22:46:20.658Z,14.70
2018-12-07T22:48:48.261Z,17.37
2018-12-07T22:51:17.865Z,16.23
2018-12-07T22:53:45.375Z,13.03
2018-12-07T22:56:12.889Z,17.70
2018-12-07T22:58:40.399Z,15.73
2018-12-07T23:01:08.759Z,15.53
2018-12-07T23:03:36.281Z,12.67
2018-12-07T23:06:03.895Z,11.03
2018-12-07T23:08:31.403Z,17.20
2018-12-07T23:10:58.905Z,14.53
2018-12-07T23:13:26.415Z,12.63
2018-12-07T23:15:53.923Z,15.07
2018-12-07T23:18:21.441Z,16.93
2018-12-07T23:20:48.945Z,16.33
2018-12-07T23:23:16.453Z,11.70
2018-12-07T23:25:44.003Z,15.17
2018-12-07T23:28:11.533Z,17.30
2018-12-07T23:30:39.043Z,10.90
2018-12-07T23:33:06.575Z,13.00
2018-12-07T23:35:34.079Z,13.60
2018-12-07T23:38:01.584Z,10.97
2018-12-07T23:40:29.100Z,19.03
2018-12-07T23:42:58.569Z,12.93
2018-12-07T23:45:26.079Z,14.07
2018-12-07T23:47:53.582Z,13.47
2018-12-07T23:50:21.175Z,9.27
2018-12-07T23:52:48.829Z,14.97
2018-12-07T23:55:16.359Z,18.93
2018-12-07T23:57:44.014Z,14.30
